Time;durP1;ratioP1;P1;durP2;ratioP2;P2;SDS_P1;SDS_P2;PMS_P1;PMS_P2;Temp;Humidity;BMP_temperature;BMP_pressure;BME280_temperature;BME280_humidity;BME280_pressure;Samples;Min_cycle;Max_cycle;Signal;HPM_P1;HPM_P2
2024/01/15 00:00:32;;;;;;;;;;;;;;;5.78;71.32;100567.00;7288224;19;19918;-69
2024/01/15 00:02:59;;;;;;;;;;;;;;;5.77;71.84;100567.94;7298088;19;19926;-68
2024/01/15 00:05:25;;;;;;;;;;;;;;;5.73;71.89;100562.16;7302021;19;19917;-69
2024/01/15 00:07:52;;;;;;;;;;;;;;;5.72;72.18;100568.34;7297973;19;20815;-69
2024/01/15 00:10:19;;;;;;;;;;;;;;;5.73;72.61;100569.16;7287301;19;19923;-68
2024/01/15 00:12:46;;;;;;;;;;;;;;;5.66;71.87;100560.19;7312483;19;19937;-69
2024/01/15 00:15:13;;;;;;;;;;;;;;;5.62;72.13;100562.22;7289099;19;19923;-69
2024/01/15 00:17:41;;;;;;;;;;;;;;;5.64;72.70;100569.94;7275765;19;20009;-67
2024/01/15 00:20:08;;;;;;;;;;;;;;;5.62;72.41;100564.84;7290440;19;21754;-68
2024/01/15 00:22:35;;;;;;;;;;;;;;;5.61;72.51;100563.19;7298256;19;19919;-69
2024/01/15 00:25:03;;;;;;;;;;;;;;;5.57;72.34;100557.41;7296958;19;19927;-69
2024/01/15 00:27:30;;;;;;;;;;;;;;;5.53;71.78;100557.78;7281382;19;19926;-68
2024/01/15 00:29:56;;;;;;;;;;;;;;;5.47;71.77;100560.88;7301141;19;20560;-68
2024/01/15 00:32:23;;;;;;;;;;;;;;;5.44;71.79;100561.94;7305106;19;19925;-69
2024/01/15 00:34:50;;;;;;;;;;;;;;;5.44;72.09;100554.13;7303599;19;19926;-68
2024/01/15 00:37:18;;;;;;;;;;;;;;;5.43;72.48;100555.09;7278182;19;22344;-68
2024/01/15 00:39:45;;;;;;;;;;;;;;;5.38;72.40;100548.63;7288324;19;19958;-69
2024/01/15 00:42:12;;;;;;;;;;;;;;;5.36;72.62;100545.28;7293934;19;22542;-68
2024/01/15 00:44:39;;;;;;;;;;;;;;;5.32;72.03;100549.09;7302695;19;19947;-68
2024/01/15 00:47:06;;;;;;;;;;;;;;;5.27;72.43;100536.44;7291681;19;19926;-69
2024/01/15 00:49:33;;;;;;;;;;;;;;;5.22;72.34;100548.22;7273998;19;19927;-68
2024/01/15 00:52:00;;;;;;;;;;;;;;;5.17;72.00;100548.59;7290730;19;20403;-68
2024/01/15 00:54:27;;;;;;;;;;;;;;;5.13;72.39;100545.38;7285897;19;19926;-68
2024/01/15 00:56:54;;;;;;;;;;;;;;;5.12;72.85;100541.16;7294618;19;19941;-68
2024/01/15 00:59:21;;;;;;;;;;;;;;;5.10;72.96;100545.66;7289710;19;20653;-68
2024/01/15 01:01:48;;;;;;;;;;;;;;;5.08;72.38;100539.72;7286403;19;19922;-69
2024/01/15 01:04:16;;;;;;;;;;;;;;;5.03;72.14;100535.81;7296443;19;20671;-69
2024/01/15 01:06:43;;;;;;;;;;;;;;;4.97;72.21;100541.56;7282449;19;19937;-69
2024/01/15 01:09:10;;;;;;;;;;;;;;;4.96;72.50;100535.50;7285177;19;19918;-69
2024/01/15 01:11:37;;;;;;;;;;;;;;;4.95;73.21;100527.81;7290774;19;20047;-69
2024/01/15 01:14:05;;;;;;;;;;;;;;;4.95;73.08;100522.59;7288996;19;19954;-68
2024/01/15 01:16:43;;;;;;;;;;;;;;;4.93;72.64;100529.69;7289654;19;19922;-68
2024/01/15 01:19:16;;;;;;;;;;;;;;;4.94;72.72;100516.56;7291667;19;19938;-70
2024/01/15 01:21:51;;;;;;;;;;;;;;;4.91;73.25;100515.97;7283287;19;19950;-68
2024/01/15 01:24:18;;;;;;;;;;;;;;;4.84;72.86;100513.03;7296861;19;19925;-68
2024/01/15 01:26:46;;;;;;;;;;;;;;;4.84;72.68;100513.03;7283043;19;19929;-68
2024/01/15 01:29:13;;;;;;;;;;;;;;;4.83;72.88;100510.53;7295693;19;20593;-67
2024/01/15 01:31:44;;;;;;;;;;;;;;;4.81;73.16;100508.09;7291998;19;19963;-69
2024/01/15 01:34:13;;;;;;;;;;;;;;;4.83;73.32;100503.56;7289588;19;20840;-69
2024/01/15 01:36:54;;;;;;;;;;;;;;;4.82;73.02;100507.16;7298386;19;22545;-71
2024/01/15 01:39:23;;;;;;;;;;;;;;;4.80;73.35;100503.00;7312636;19;19919;-68
2024/01/15 01:41:54;;;;;;;;;;;;;;;4.80;72.97;100503.00;7292755;19;20587;-68
2024/01/15 01:44:20;;;;;;;;;;;;;;;4.77;72.75;100504.06;7298370;19;19931;-68
2024/01/15 01:46:47;;;;;;;;;;;;;;;4.78;73.57;100505.72;7298761;19;19939;-67
2024/01/15 01:49:15;;;;;;;;;;;;;;;4.75;73.03;100508.56;7283298;19;20012;-71
2024/01/15 01:51:42;;;;;;;;;;;;;;;4.79;72.89;100511.75;7276324;19;21186;-70
2024/01/15 01:54:11;;;;;;;;;;;;;;;4.76;72.84;100506.81;7286292;19;19977;-69
2024/01/15 01:56:38;;;;;;;;;;;;;;;4.77;73.21;100505.84;7275843;19;19922;-71
2024/01/15 01:59:05;;;;;;;;;;;;;;;4.78;72.84;100512.69;7272184;19;21980;-69
2024/01/15 02:01:32;;;;;;;;;;;;;;;4.76;72.79;100514.63;7291555;19;19926;-68
2024/01/15 02:04:00;;;;;;;;;;;;;;;4.76;72.66;100514.63;7284976;19;19914;-68
2024/01/15 02:06:27;;;;;;;;;;;;;;;4.77;72.77;100516.28;7284124;19;19915;-69
2024/01/15 02:08:55;;;;;;;;;;;;;;;4.76;73.61;100514.63;7278755;19;19918;-70
2024/01/15 02:11:22;;;;;;;;;;;;;;;4.71;73.44;100522.81;7295254;19;19929;-67
2024/01/15 02:13:49;;;;;;;;;;;;;;;4.68;73.29;100520.44;7303515;19;20263;-68
2024/01/15 02:16:16;;;;;;;;;;;;;;;4.71;74.76;100521.03;7297957;19;20784;-70
2024/01/15 02:18:44;;;;;;;;;;;;;;;4.74;74.83;100512.97;7294670;19;19926;-67
2024/01/15 02:21:11;;;;;;;;;;;;;;;4.73;75.32;100526.09;7289083;19;19919;-69
2024/01/15 02:23:39;;;;;;;;;;;;;;;4.69;74.50;100520.31;7302136;19;22631;-69
2024/01/15 02:26:06;;;;;;;;;;;;;;;4.65;74.49;100525.91;7294034;19;19969;-68
2024/01/15 02:28:33;;;;;;;;;;;;;;;4.60;74.73;100523.66;7290791;19;20921;-68
2024/01/15 02:31:00;;;;;;;;;;;;;;;4.58;75.09;100511.69;7295198;19;19919;-70
2024/01/15 02:33:27;;;;;;;;;;;;;;;4.52;74.64;100517.41;7294290;19;20194;-68
2024/01/15 02:35:54;;;;;;;;;;;;;;;4.51;75.09;100511.38;7278690;19;19915;-69
2024/01/15 02:38:21;;;;;;;;;;;;;;;4.50;75.67;100509.72;7293454;19;19927;-68
2024/01/15 02:40:49;;;;;;;;;;;;;;;4.49;75.82;100508.06;7304545;19;19923;-68
2024/01/15 02:43:16;;;;;;;;;;;;;;;4.47;76.01;100504.72;7300896;19;19930;-69
2024/01/15 02:45:43;;;;;;;;;;;;;;;4.47;75.78;100504.72;7285726;19;21105;-68
2024/01/15 02:48:10;;;;;;;;;;;;;;;4.45;76.14;100503.22;7294506;19;19930;-68
2024/01/15 02:50:37;;;;;;;;;;;;;;;4.40;75.86;100505.34;7309124;19;20296;-68
2024/01/15 02:53:04;;;;;;;;;;;;;;;4.43;76.33;100505.09;7294988;19;19915;-69
2024/01/15 02:55:31;;;;;;;;;;;;;;;4.42;76.35;100503.47;7292124;19;19922;-68
2024/01/15 02:57:58;;;;;;;;;;;;;;;4.39;76.58;100501.91;7290559;19;19923;-69
2024/01/15 03:00:25;;;;;;;;;;;;;;;4.34;76.01;100498.84;7293800;19;20249;-69
2024/01/15 03:02:52;;;;;;;;;;;;;;;4.37;76.49;100503.00;7283919;19;19923;-68
2024/01/15 03:05:20;;;;;;;;;;;;;;;4.30;76.05;100495.66;7288731;19;19930;-68
2024/01/15 03:07:47;;;;;;;;;;;;;;;4.30;76.55;100494.84;7269648;19;20515;-70
2024/01/15 03:10:14;;;;;;;;;;;;;;;4.30;76.54;100502.66;7292019;19;21147;-70
2024/01/15 03:12:41;;;;;;;;;;;;;;;4.27;76.26;100492.47;7295122;19;20417;-69
2024/01/15 03:15:08;;;;;;;;;;;;;;;4.23;76.08;100497.09;7298970;19;19923;-70
2024/01/15 03:17:35;;;;;;;;;;;;;;;4.23;76.43;100504.91;7289161;19;20463;-68
2024/01/15 03:20:03;;;;;;;;;;;;;;;4.25;76.48;100507.41;7282806;19;19925;-68
2024/01/15 03:22:30;;;;;;;;;;;;;;;4.25;76.57;100500.41;7288224;19;19978;-69
2024/01/15 03:24:57;;;;;;;;;;;;;;;4.19;76.33;100498.28;7293358;19;20396;-68
2024/01/15 03:27:25;;;;;;;;;;;;;;;4.15;75.92;100507.28;7290482;19;21336;-68
2024/01/15 03:29:52;;;;;;;;;;;;;;;4.13;75.94;100506.56;7294597;19;20303;-69
2024/01/15 03:32:19;;;;;;;;;;;;;;;4.11;75.72;100502.44;7297209;19;21602;-69
2024/01/15 03:34:47;;;;;;;;;;;;;;;4.06;75.77;100500.19;7283237;19;20950;-68
2024/01/15 03:37:14;;;;;;;;;;;;;;;4.01;75.84;100501.50;7271865;19;19921;-69
2024/01/15 03:39:41;;;;;;;;;;;;;;;4.03;75.90;100495.22;7280535;19;20533;-69
2024/01/15 03:42:08;;;;;;;;;;;;;;;4.03;75.62;100494.38;7285143;19;19955;-69
2024/01/15 03:44:35;;;;;;;;;;;;;;;4.02;75.54;100496.16;7297642;19;19919;-68
2024/01/15 03:47:02;;;;;;;;;;;;;;;3.98;75.06;100496.50;7295258;19;19923;-69
2024/01/15 03:49:29;;;;;;;;;;;;;;;4.00;75.78;100494.63;7281384;19;19926;-68
2024/01/15 03:51:56;;;;;;;;;;;;;;;3.99;75.88;100490.38;7298074;19;19971;-68
2024/01/15 03:54:23;;;;;;;;;;;;;;;4.03;76.06;100495.22;7293357;19;19915;-69
2024/01/15 03:56:50;;;;;;;;;;;;;;;4.02;75.41;100492.72;7288896;19;19922;-69
2024/01/15 03:59:16;;;;;;;;;;;;;;;4.02;75.49;100497.94;7290011;19;19922;-69
2024/01/15 04:01:50;;;;;;;;;;;;;;;4.03;75.10;100492.63;7273608;19;22011;-68
2024/01/15 04:04:17;;;;;;;;;;;;;;;4.02;75.45;100497.94;7294204;19;19928;-69
2024/01/15 04:06:45;;;;;;;;;;;;;;;3.94;74.71;100492.50;7290904;19;19922;-68
2024/01/15 04:09:13;;;;;;;;;;;;;;;3.91;75.07;100482.34;7279631;19;19927;-68
2024/01/15 04:11:40;;;;;;;;;;;;;;;3.87;74.62;100486.94;7302479;19;19947;-68
2024/01/15 04:14:07;;;;;;;;;;;;;;;3.84;75.29;100481.97;7291351;19;20418;-69
2024/01/15 04:16:34;;;;;;;;;;;;;;;3.81;75.54;100472.63;7293484;19;19921;-68
2024/01/15 04:19:01;;;;;;;;;;;;;;;3.79;75.68;100479.75;7284030;19;20698;-69
2024/01/15 04:21:28;;;;;;;;;;;;;;;3.76;76.02;100485.16;7285841;19;19927;-68
2024/01/15 04:23:55;;;;;;;;;;;;;;;3.78;76.07;100479.84;7293439;19;19919;-68
2024/01/15 04:26:22;;;;;;;;;;;;;;;3.73;76.57;100477.59;7298089;19;20346;-69
2024/01/15 04:28:49;;;;;;;;;;;;;;;3.76;76.79;100469.56;7294262;19;20844;-71
2024/01/15 04:31:26;;;;;;;;;;;;;;;3.74;76.73;100468.03;7284099;19;19919;-70
2024/01/15 04:33:54;;;;;;;;;;;;;;;3.74;76.85;100461.06;7287799;19;19979;-69
2024/01/15 04:36:21;;;;;;;;;;;;;;;3.75;77.28;100461.88;7296902;19;19933;-68
2024/01/15 04:38:48;;;;;;;;;;;;;;;3.78;77.47;100466.84;7296371;19;20221;-70
2024/01/15 04:41:16;;;;;;;;;;;;;;;3.79;77.83;100458.94;7290240;19;19994;-69
2024/01/15 04:43:42;;;;;;;;;;;;;;;3.79;77.10;100465.91;7284872;19;20034;-68
2024/01/15 04:46:09;;;;;;;;;;;;;;;3.76;77.13;100463.53;7270732;19;19923;-69
2024/01/15 04:48:36;;;;;;;;;;;;;;;3.74;77.12;100468.03;7273921;19;19929;-69
2024/01/15 04:51:06;;;;;;;;;;;;;;;3.78;77.85;100474.66;7280654;19;19923;-67
2024/01/15 04:53:34;;;;;;;;;;;;;;;3.79;77.80;100468.50;7291700;19;20229;-71
2024/01/15 04:56:01;;;;;;;;;;;;;;;3.79;78.29;100474.53;7304933;19;19938;-69
2024/01/15 04:58:29;;;;;;;;;;;;;;;3.76;77.53;100463.53;7298089;19;20191;-69
2024/01/15 05:00:56;;;;;;;;;;;;;;;3.76;77.44;100460.91;7308820;19;19922;-69
2024/01/15 05:03:23;;;;;;;;;;;;;;;3.74;77.73;100455.84;7307346;19;19946;-69
2024/01/15 05:05:50;;;;;;;;;;;;;;;3.76;77.64;100456.53;7292010;19;19922;-69
2024/01/15 05:08:17;;;;;;;;;;;;;;;3.75;77.49;100461.88;7288581;19;19919;-69
2024/01/15 05:10:45;;;;;;;;;;;;;;;3.71;77.65;100471.69;7290819;19;19930;-69
2024/01/15 05:13:11;;;;;;;;;;;;;;;3.65;77.76;100469.56;7284170;19;20917;-70
2024/01/15 05:15:38;;;;;;;;;;;;;;;3.63;77.83;100471.44;7299125;19;19915;-70
2024/01/15 05:18:06;;;;;;;;;;;;;;;3.63;77.96;100463.66;7296856;19;20891;-69
2024/01/15 05:20:34;;;;;;;;;;;;;;;3.63;78.10;100463.66;7295443;19;19927;-69
2024/01/15 05:23:01;;;;;;;;;;;;;;;3.60;78.40;100471.69;7284316;19;19919;-69
2024/01/15 05:25:28;;;;;;;;;;;;;;;3.59;78.70;100466.59;7286280;19;19918;-68
2024/01/15 05:27:55;;;;;;;;;;;;;;;3.56;78.74;100461.63;7283135;19;20988;-69
2024/01/15 05:30:22;;;;;;;;;;;;;;;3.55;79.55;100463.41;7300384;19;19926;-70
2024/01/15 05:32:49;;;;;;;;;;;;;;;3.51;79.23;100461.97;7300375;19;19952;-69
2024/01/15 05:35:16;;;;;;;;;;;;;;;3.51;79.36;100467.19;7280770;19;19910;-69
2024/01/15 05:37:44;;;;;;;;;;;;;;;3.53;79.06;100461.88;7268410;19;20144;-68
2024/01/15 05:40:12;;;;;;;;;;;;;;;3.52;78.86;100463.63;7305987;19;19919;-68
2024/01/15 05:42:40;;;;;;;;;;;;;;;3.49;79.14;100458.69;7290513;19;19919;-69
2024/01/15 05:45:07;;;;;;;;;;;;;;;3.49;79.74;100470.84;7284100;19;20387;-68
2024/01/15 05:47:34;;;;;;;;;;;;;;;3.49;79.56;100458.69;7280779;19;19915;-68
2024/01/15 05:50:02;;;;;;;;;;;;;;;3.49;79.64;100463.06;7287372;19;19922;-69
2024/01/15 05:52:31;;;;;;;;;;;;;;;3.45;79.59;100457.25;7300821;19;19919;-68
2024/01/15 05:55:02;;;;;;;;;;;;;;;3.50;79.74;100452.53;7291010;19;19951;-68
2024/01/15 05:57:36;;;;;;;;;;;;;;;3.51;79.91;100456.78;7276987;19;20507;-68
2024/01/15 06:00:04;;;;;;;;;;;;;;;3.52;79.36;100460.19;7282454;19;19933;-71
2024/01/15 06:02:31;;;;;;;;;;;;;;;3.51;79.88;100463.75;7273363;19;19915;-69
2024/01/15 06:04:58;;;;;;;;;;;;;;;3.50;79.72;100470.75;7298563;19;19919;-70
2024/01/15 06:07:25;;;;;;;;;;;;;;;3.51;79.78;100458.53;7279797;19;19930;-69
2024/01/15 06:09:52;;;;;;;;;;;;;;;3.51;79.65;100469.78;7269331;19;20013;-70
2024/01/15 06:12:19;;;;;;;;;;;;;;;3.52;80.06;100461.03;7302841;19;19922;-70
2024/01/15 06:14:46;;;;;;;;;;;;;;;3.55;79.86;100462.59;7289230;19;19931;-69
2024/01/15 06:17:13;;;;;;;;;;;;;;;3.55;79.78;100463.41;7269664;19;20601;-70
2024/01/15 06:19:40;;;;;;;;;;;;;;;3.56;79.55;100472.84;7283061;19;19918;-70
2024/01/15 06:22:07;;;;;;;;;;;;;;;3.53;79.31;100472.25;7289256;19;21123;-70
2024/01/15 06:24:34;;;;;;;;;;;;;;;3.49;79.31;100476.06;7276455;19;20357;-70
2024/01/15 06:27:01;;;;;;;;;;;;;;;3.48;78.72;100490.00;7289569;19;22157;-70
2024/01/15 06:29:28;;;;;;;;;;;;;;;3.44;79.03;100492.84;7282977;19;20197;-70
2024/01/15 06:31:55;;;;;;;;;;;;;;;3.42;79.26;100491.28;7291902;19;20239;-68
2024/01/15 06:34:22;;;;;;;;;;;;;;;3.41;79.44;100493.03;7292557;19;19914;-70
2024/01/15 06:36:49;;;;;;;;;;;;;;;3.39;79.32;100491.53;7293152;19;21276;-70
2024/01/15 06:39:16;;;;;;;;;;;;;;;3.39;78.88;100507.13;7280564;19;19922;-71
2024/01/15 06:41:43;;;;;;;;;;;;;;;3.44;78.80;100512.81;7301877;19;20059;-69
2024/01/15 06:44:13;;;;;;;;;;;;;;;3.43;78.49;100511.13;7305420;19;20212;-69
2024/01/15 06:46:43;;;;;;;;;;;;;;;3.48;78.35;100516.00;7286817;19;19922;-70
2024/01/15 06:49:10;;;;;;;;;;;;;;;3.45;77.45;100511.88;7285760;19;19922;-70
2024/01/15 06:51:38;;;;;;;;;;;;;;;3.45;77.02;100504.06;7290086;19;20002;-71
2024/01/15 06:54:05;;;;;;;;;;;;;;;3.43;76.59;100505.94;7303339;19;19933;-70
2024/01/15 06:56:32;;;;;;;;;;;;;;;3.47;76.88;100512.56;7303641;19;20663;-69
2024/01/15 06:58:59;;;;;;;;;;;;;;;3.50;76.46;100512.34;7289672;19;20358;-70
2024/01/15 07:01:25;;;;;;;;;;;;;;;3.49;76.27;100520.25;7304179;19;20773;-71
2024/01/15 07:03:52;;;;;;;;;;;;;;;3.48;76.14;100513.38;7287441;19;19918;-70
2024/01/15 07:06:19;;;;;;;;;;;;;;;3.47;75.59;100507.38;7286553;19;20865;-71
2024/01/15 07:08:46;;;;;;;;;;;;;;;3.49;75.86;100509.84;7284799;19;19919;-71
2024/01/15 07:11:18;;;;;;;;;;;;;;;3.45;75.32;100511.88;7299216;19;20028;-69
2024/01/15 07:13:45;;;;;;;;;;;;;;;3.45;75.39;100510.06;7288887;19;20537;-71
2024/01/15 07:16:15;;;;;;;;;;;;;;;3.48;75.10;100511.63;7295948;19;19939;-71
2024/01/15 07:19:02;;;;;;;;;;;;;;;3.45;74.93;100509.28;7277616;19;20006;-69
2024/01/15 07:21:29;;;;;;;;;;;;;;;3.45;74.77;100510.06;7286413;19;19919;-70
2024/01/15 07:23:56;;;;;;;;;;;;;;;3.47;74.84;100516.94;7283942;19;19926;-71
2024/01/15 07:26:23;;;;;;;;;;;;;;;3.45;73.96;100514.47;7274478;19;20546;-69
2024/01/15 07:28:50;;;;;;;;;;;;;;;3.43;74.17;100514.56;7283953;19;19923;-69
2024/01/15 07:31:17;;;;;;;;;;;;;;;3.42;74.22;100514.69;7293151;19;20349;-70
2024/01/15 07:33:48;;;;;;;;;;;;;;;3.39;74.26;100509.72;7307009;19;20355;-69
2024/01/15 07:36:15;;;;;;;;;;;;;;;3.39;74.00;100507.94;7290279;19;19923;-71
2024/01/15 07:38:42;;;;;;;;;;;;;;;3.37;73.40;100509.81;7278983;19;20940;-69
2024/01/15 07:41:09;;;;;;;;;;;;;;;3.34;73.67;100499.66;7293194;19;20103;-70
2024/01/15 07:43:37;;;;;;;;;;;;;;;3.32;73.83;100506.75;7295502;19;20277;-69
2024/01/15 07:46:05;;;;;;;;;;;;;;;3.33;73.62;100504.97;7295735;19;19967;-69
2024/01/15 07:48:32;;;;;;;;;;;;;;;3.34;73.79;100512.66;7296859;19;19918;-70
2024/01/15 07:50:59;;;;;;;;;;;;;;;3.36;73.67;100520.34;7283524;19;19940;-71
2024/01/15 07:53:27;;;;;;;;;;;;;;;3.35;73.16;100526.50;7291572;19;21194;-70
2024/01/15 07:55:54;;;;;;;;;;;;;;;3.39;72.78;100525.31;7285431;19;21509;-71
2024/01/15 07:58:21;;;;;;;;;;;;;;;3.37;72.48;100520.22;7280622;19;19918;-71
2024/01/15 08:00:48;;;;;;;;;;;;;;;3.34;72.55;100523.06;7300512;19;19991;-72
2024/01/15 08:03:15;;;;;;;;;;;;;;;3.33;72.64;100518.81;7304238;19;20399;-71
2024/01/15 08:05:42;;;;;;;;;;;;;;;3.35;72.25;100529.91;7297959;19;22130;-70
2024/01/15 08:08:09;;;;;;;;;;;;;;;3.37;72.39;100527.19;7307103;19;19959;-70
2024/01/15 08:10:36;;;;;;;;;;;;;;;3.33;72.33;100526.59;7291716;19;19922;-72
2024/01/15 08:13:03;;;;;;;;;;;;;;;3.33;72.01;100525.78;7294195;19;20403;-70
2024/01/15 08:15:30;;;;;;;;;;;;;;;3.33;72.33;100525.78;7277875;19;21838;-69
2024/01/15 08:17:58;;;;;;;;;;;;;;;3.32;72.23;100535.34;7291970;19;21233;-70
2024/01/15 08:20:25;;;;;;;;;;;;;;;3.34;71.63;100530.03;7284246;19;19915;-71
2024/01/15 08:22:52;;;;;;;;;;;;;;;3.36;72.11;100531.56;7289596;19;19933;-69
2024/01/15 08:25:19;;;;;;;;;;;;;;;3.39;72.39;100527.91;7298754;19;19958;-71
2024/01/15 08:27:46;;;;;;;;;;;;;;;3.37;71.63;100527.19;7298586;19;19923;-71
2024/01/15 08:30:14;;;;;;;;;;;;;;;3.42;72.06;100527.69;7290420;19;20120;-70
2024/01/15 08:32:42;;;;;;;;;;;;;;;3.43;71.43;100527.56;7286727;19;19967;-70
2024/01/15 08:35:13;;;;;;;;;;;;;;;3.43;71.49;100532.78;7293593;19;19920;-70
2024/01/15 08:37:40;;;;;;;;;;;;;;;3.44;71.58;100531.00;7295489;19;21744;-70
2024/01/15 08:40:07;;;;;;;;;;;;;;;3.49;71.29;100543.66;7303567;19;20449;-71
2024/01/15 08:42:34;;;;;;;;;;;;;;;3.53;71.58;100550.28;7309182;19;19919;-71
2024/01/15 08:45:01;;;;;;;;;;;;;;;3.56;71.44;100557.84;7304173;19;19918;-71
2024/01/15 08:47:28;;;;;;;;;;;;;;;3.55;71.51;100554.44;7287513;19;21449;-71
2024/01/15 08:49:56;;;;;;;;;;;;;;;3.59;70.54;100566.25;7285135;19;19955;-71
2024/01/15 08:52:23;;;;;;;;;;;;;;;3.60;70.51;100578.31;7305731;19;20737;-71
2024/01/15 08:54:50;;;;;;;;;;;;;;;3.56;70.52;100582.06;7286124;19;19923;-70
2024/01/15 08:57:17;;;;;;;;;;;;;;;3.61;70.90;100594.72;7285486;19;19951;-70
2024/01/15 08:59:45;;;;;;;;;;;;;;;3.58;70.51;100598.41;7291308;19;21098;-70
2024/01/15 09:02:13;;;;;;;;;;;;;;;3.60;71.72;100599.13;7297289;19;19926;-69
2024/01/15 09:04:41;;;;;;;;;;;;;;;3.61;71.24;100595.56;7295650;19;19945;-70
2024/01/15 09:07:08;;;;;;;;;;;;;;;3.65;71.07;100591.81;7290340;19;20243;-70
2024/01/15 09:09:42;;;;;;;;;;;;;;;3.68;70.81;100591.56;7286770;19;19960;-69
2024/01/15 09:12:10;;;;;;;;;;;;;;;3.99;84.75;100604.88;7293859;19;19927;-70
2024/01/15 09:14:39;;;;;;;;;;;;;;;4.24;88.84;100609.88;7280292;19;20145;-70
2024/01/15 09:17:08;;;;;;;;;;;;;;;4.18;78.04;100613.78;7295865;19;20314;-69
2024/01/15 09:19:36;;;;;;;;;;;;;;;4.13;72.73;100615.91;7287590;19;19923;-71
2024/01/15 09:22:05;;;;;;;;;;;;;;;4.11;71.65;100610.00;7286240;19;19926;-70
2024/01/15 09:24:34;;;;;;;;;;;;;;;4.06;71.07;100617.31;7300165;19;19923;-70
2024/01/15 09:27:05;;;;;;;;;;;;;;;4.03;70.23;100616.72;7294373;19;19926;-68
2024/01/15 09:29:39;;;;;;;;;;;;;;;4.01;70.60;100622.06;7300300;19;19919;-70
2024/01/15 09:32:09;;;;;;;;;;;;;;;4.00;70.36;100612.59;7284731;19;20813;-70
2024/01/15 09:34:38;;;;;;;;;;;;;;;4.01;69.93;100618.63;7301642;19;19933;-69
2024/01/15 09:37:07;;;;;;;;;;;;;;;4.01;70.02;100618.63;7295753;19;19925;-70
2024/01/15 09:39:41;;;;;;;;;;;;;;;4.04;70.42;100620.97;7294342;19;19918;-70
2024/01/15 09:42:14;;;;;;;;;;;;;;;4.05;69.95;100623.47;7285191;19;19919;-70
2024/01/15 09:44:48;;;;;;;;;;;;;;;4.05;69.86;100620.88;7290998;19;19978;-70
2024/01/15 09:47:17;;;;;;;;;;;;;;;4.07;70.66;100616.34;7285745;19;19918;-71
2024/01/15 09:49:44;;;;;;;;;;;;;;;4.12;70.51;100626.41;7287868;19;19927;-70
2024/01/15 09:52:19;;;;;;;;;;;;;;;4.18;69.61;100628.56;7296631;19;19994;-69
2024/01/15 09:54:48;;;;;;;;;;;;;;;4.14;68.21;100620.16;7309743;19;19915;-70
2024/01/15 09:57:16;;;;;;;;;;;;;;;4.16;68.74;100633.91;7284789;19;20050;-70
2024/01/15 09:59:54;;;;;;;;;;;;;;;4.20;67.80;100634.50;7281792;19;19923;-70
2024/01/15 10:02:25;;;;;;;;;;;;;;;4.16;67.27;100639.09;7275512;19;19927;-71
2024/01/15 10:04:55;;;;;;;;;;;;;;;4.16;67.53;100640.88;7276569;19;19922;-71
2024/01/15 10:07:23;;;;;;;;;;;;;;;4.17;67.46;100634.69;7278516;19;20507;-69
2024/01/15 10:09:51;;;;;;;;;;;;;;;4.21;67.56;100636.16;7279160;19;19923;-68
2024/01/15 10:12:18;;;;;;;;;;;;;;;4.26;66.76;100650.47;7277046;19;21045;-71
2024/01/15 10:14:46;;;;;;;;;;;;;;;4.28;66.48;100643.34;7289562;19;19922;-70
2024/01/15 10:17:17;;;;;;;;;;;;;;;4.32;66.68;100643.94;7300457;19;20297;-70
2024/01/15 10:19:48;;;;;;;;;;;;;;;4.37;65.14;100647.03;7290997;19;20858;-72
2024/01/15 10:22:17;;;;;;;;;;;;;;;4.34;64.40;100660.28;7291998;19;19934;-70
2024/01/15 10:24:46;;;;;;;;;;;;;;;4.33;64.19;100653.44;7311132;19;19926;-70
2024/01/15 10:27:16;;;;;;;;;;;;;;;4.32;63.62;100657.78;7304231;19;19930;-69
2024/01/15 10:29:44;;;;;;;;;;;;;;;4.34;64.10;100655.09;7301966;19;19929;-70
2024/01/15 10:32:12;;;;;;;;;;;;;;;4.34;62.91;100669.88;7296321;19;19927;-70
2024/01/15 10:34:40;;;;;;;;;;;;;;;4.29;62.82;100665.84;7300998;19;19930;-69
2024/01/15 10:37:09;;;;;;;;;;;;;;;4.28;62.42;100663.38;7288408;19;21026;-69
2024/01/15 10:39:36;;;;;;;;;;;;;;;4.26;62.69;100660.91;7278051;19;19923;-69
2024/01/15 10:42:04;;;;;;;;;;;;;;;4.32;63.58;100664.78;7299473;19;20604;-69
2024/01/15 10:44:33;;;;;;;;;;;;;;;4.36;61.56;100670.59;7287426;19;19982;-70
2024/01/15 10:47:07;;;;;;;;;;;;;;;4.37;60.58;100678.28;7305177;19;20329;-69
2024/01/15 10:49:35;;;;;;;;;;;;;;;4.37;61.35;100661.84;7282412;19;20029;-70
2024/01/15 10:52:03;;;;;;;;;;;;;;;4.39;61.67;100668.59;7302014;19;19923;-70
2024/01/15 10:54:31;;;;;;;;;;;;;;;4.39;60.38;100667.75;7306848;19;19915;-71
2024/01/15 10:56:59;;;;;;;;;;;;;;;4.38;60.74;100666.09;7298526;19;19915;-69
2024/01/15 10:59:26;;;;;;;;;;;;;;;4.39;60.64;100660.78;7288991;19;19955;-70
2024/01/15 11:01:54;;;;;;;;;;;;;;;4.42;60.23;100665.72;7278843;19;19919;-70
2024/01/15 11:04:23;;;;;;;;;;;;;;;4.40;60.20;100657.22;7298615;19;20817;-69
2024/01/15 11:06:53;;;;;;;;;;;;;;;4.39;60.26;100652.97;7289382;19;20014;-69
2024/01/15 11:09:23;;;;;;;;;;;;;;;4.39;60.10;100646.91;7286554;19;19922;-70
2024/01/15 11:11:55;;;;;;;;;;;;;;;4.42;61.68;100655.31;7283956;19;19914;-69
2024/01/15 11:14:35;;;;;;;;;;;;;;;4.40;60.45;100648.59;7287357;19;19929;-71
2024/01/15 11:17:05;;;;;;;;;;;;;;;4.42;60.49;100644.91;7296619;19;19929;-69
2024/01/15 11:19:39;;;;;;;;;;;;;;;4.48;60.19;100647.03;7307718;19;19922;-71
2024/01/15 11:22:30;;;;;;;;;;;;;;;4.54;60.60;100649.19;7317131;19;19923;-69
2024/01/15 11:25:02;;;;;;;;;;;;;;;4.59;60.80;100656.63;7317831;19;20431;-70
2024/01/15 11:27:42;;;;;;;;;;;;;;;4.63;60.45;100664.09;7315474;19;19915;-68
2024/01/15 11:30:10;;;;;;;;;;;;;;;4.61;59.22;100668.59;7306454;19;19927;-71
2024/01/15 11:32:42;;;;;;;;;;;;;;;4.65;59.42;100672.63;7288456;19;19915;-70
2024/01/15 11:35:18;;;;;;;;;;;;;;;4.67;59.80;100677.72;7301341;19;19923;-69
2024/01/15 11:37:57;;;;;;;;;;;;;;;4.74;59.74;100673.69;7298618;19;19922;-69
2024/01/15 11:40:24;;;;;;;;;;;;;;;4.79;60.08;100681.13;7290288;19;19930;-68
2024/01/15 11:42:52;;;;;;;;;;;;;;;4.82;58.53;100680.91;7297582;19;20315;-69
2024/01/15 11:45:19;;;;;;;;;;;;;;;4.85;58.95;100681.50;7278231;19;19934;-70
2024/01/15 11:47:47;;;;;;;;;;;;;;;4.84;58.63;100673.78;7282717;19;21037;-69
2024/01/15 11:50:14;;;;;;;;;;;;;;;4.83;58.59;100675.56;7283466;19;19944;-71
2024/01/15 11:52:44;;;;;;;;;;;;;;;4.81;58.17;100690.50;7278430;19;21208;-68
2024/01/15 11:55:18;;;;;;;;;;;;;;;4.81;57.90;100676.66;7296604;19;19927;-69
2024/01/15 11:57:46;;;;;;;;;;;;;;;4.81;57.07;100685.28;7303926;19;20367;-68
2024/01/15 12:00:14;;;;;;;;;;;;;;;4.88;57.00;100683.84;7287854;19;21636;-69
2024/01/15 12:02:46;;;;;;;;;;;;;;;4.88;57.07;100694.28;7282358;19;20518;-68
2024/01/15 12:05:16;;;;;;;;;;;;;;;4.94;57.24;100695.56;7282842;19;19926;-69
2024/01/15 12:07:44;;;;;;;;;;;;;;;4.92;56.82;100703.53;7289766;19;19923;-68
2024/01/15 12:10:12;;;;;;;;;;;;;;;4.93;57.79;100706.94;7309024;19;20308;-69
2024/01/15 12:13:05;;;;;;;;;;;;;;;4.98;58.04;100700.41;7307132;19;20017;-68
2024/01/15 12:15:32;;;;;;;;;;;;;;;5.05;56.82;100698.19;7306197;19;19915;-68
2024/01/15 12:18:00;;;;;;;;;;;;;;;5.08;56.74;100690.09;7300710;19;19923;-68
2024/01/15 12:20:27;;;;;;;;;;;;;;;5.12;56.94;100704.56;7290756;19;19939;-68
2024/01/15 12:22:57;;;;;;;;;;;;;;;5.14;56.36;100702.66;7296404;19;20922;-69
2024/01/15 12:25:30;;;;;;;;;;;;;;;5.18;56.74;100700.66;7291900;19;19919;-69
2024/01/15 12:27:57;;;;;;;;;;;;;;;5.21;56.60;100700.41;7297879;19;19922;-69
2024/01/15 12:30:25;;;;;;;;;;;;;;;5.23;56.01;100696.75;7290862;19;19930;-68
2024/01/15 12:32:52;;;;;;;;;;;;;;;5.26;55.26;100708.69;7295135;19;19974;-69
2024/01/15 12:35:19;;;;;;;;;;;;;;;5.27;55.41;100699.91;7297636;19;20501;-69
2024/01/15 12:37:47;;;;;;;;;;;;;;;5.31;54.57;100702.16;7304341;19;19923;-69
2024/01/15 12:40:19;;;;;;;;;;;;;;;5.33;54.43;100702.03;7296609;19;20259;-69
2024/01/15 12:42:46;;;;;;;;;;;;;;;5.31;55.05;100694.34;7286229;19;20006;-69
2024/01/15 12:45:13;;;;;;;;;;;;;;;5.29;54.19;100687.56;7297969;19;19922;-69
2024/01/15 12:47:43;;;;;;;;;;;;;;;5.31;54.31;100689.13;7289501;19;19926;-69
2024/01/15 12:50:11;;;;;;;;;;;;;;;5.31;54.62;100683.06;7287907;19;20597;-69
2024/01/15 12:52:45;;;;;;;;;;;;;;;5.32;53.77;100682.97;7300648;19;19918;-68